createdAt,value
2022-09-11T00:00:52.903Z,22.70
2022-09-11T00:05:56.370Z,20.88
2022-09-11T00:11:07.622Z,23.10
2022-09-11T00:16:21.708Z,25.08
2022-09-11T00:21:26.360Z,23.75
2022-09-11T00:26:31.183Z,25.75
2022-09-11T00:31:34.939Z,25.13
2022-09-11T00:36:41.653Z,26.15
2022-09-11T00:41:46.679Z,25.35
2022-09-11T00:46:53.215Z,23.25
2022-09-11T00:52:01.872Z,23.58
2022-09-11T00:57:09.497Z,24.98
2022-09-11T01:02:16.409Z,25.52
2022-09-11T01:07:22.825Z,27.15
2022-09-11T01:12:36.446Z,23.63
2022-09-11T01:17:51.221Z,24.50
2022-09-11T01:23:20.499Z,23.90
2022-09-11T01:28:33.708Z,23.20
2022-09-11T01:33:43.433Z,24.13
2022-09-11T01:38:52.673Z,18.73
2022-09-11T01:44:03.820Z,22.90
2022-09-11T01:49:12.345Z,20.98
2022-09-11T01:54:19.226Z,23.38
2022-09-11T01:59:27.989Z,18.23
2022-09-11T02:04:36.227Z,19.20
2022-09-11T02:09:46.163Z,17.90
2022-09-11T02:14:53.322Z,18.92
2022-09-11T02:20:00.228Z,15.00
2022-09-11T02:25:04.007Z,18.90
2022-09-11T02:30:11.669Z,24.00
2022-09-11T02:35:16.432Z,17.95
2022-09-11T02:40:38.065Z,18.60
2022-09-11T02:45:54.990Z,18.20
2022-09-11T02:51:08.655Z,18.73
2022-09-11T02:56:18.246Z,16.58
2022-09-11T03:01:23.722Z,19.13
2022-09-11T03:06:28.649Z,21.42
2022-09-11T03:11:32.395Z,21.42
2022-09-11T03:16:37.850Z,20.73
2022-09-11T03:21:41.854Z,19.42
2022-09-11T03:26:45.606Z,20.20
2022-09-11T03:31:51.435Z,19.35
2022-09-11T03:36:55.129Z,19.98
2022-09-11T03:41:59.378Z,20.83
2022-09-11T03:47:05.633Z,18.55
2022-09-11T03:52:09.163Z,19.77
2022-09-11T03:57:13.075Z,21.25
2022-09-11T04:02:18.541Z,17.42
2022-09-11T04:07:22.515Z,21.10
2022-09-11T04:12:26.649Z,22.77
2022-09-11T04:17:31.985Z,18.25
2022-09-11T04:22:35.636Z,21.92
2022-09-11T04:27:39.607Z,16.40
2022-09-11T04:32:46.891Z,15.98
2022-09-11T04:37:50.704Z,17.02
2022-09-11T04:42:54.090Z,13.65
2022-09-11T04:47:59.208Z,17.33
2022-09-11T04:53:03.082Z,18.67
2022-09-11T04:58:07.920Z,15.30
2022-09-11T05:03:12.852Z,13.60
2022-09-11T05:08:18.899Z,15.32
2022-09-11T05:13:24.286Z,16.42
2022-09-11T05:18:29.489Z,15.75
2022-09-11T05:23:34.288Z,17.42
2022-09-11T05:28:39.120Z,11.82
2022-09-11T05:33:44.991Z,13.52
2022-09-11T05:38:48.838Z,15.65
2022-09-11T05:43:52.957Z,16.52
2022-09-11T05:48:59.065Z,13.15
2022-09-11T05:54:04.655Z,12.68
2022-09-11T05:59:14.660Z,13.43
2022-09-11T06:04:21.606Z,16.52
2022-09-11T06:09:27.943Z,16.33
2022-09-11T06:14:32.093Z,15.70
2022-09-11T06:19:37.836Z,16.08
2022-09-11T06:24:42.058Z,14.40
2022-09-11T06:29:45.919Z,15.02
2022-09-11T06:34:50.687Z,13.07
2022-09-11T06:39:54.322Z,14.75
2022-09-11T06:45:02.735Z,14.23
2022-09-11T06:50:09.537Z,13.85
2022-09-11T06:55:19.949Z,15.85
2022-09-11T07:00:31.089Z,16.35
2022-09-11T07:05:35.866Z,16.67
2022-09-11T07:10:39.426Z,15.82
2022-09-11T07:15:43.454Z,13.10
2022-09-11T07:20:49.616Z,16.67
2022-09-11T07:25:54.107Z,16.52
2022-09-11T07:31:05.866Z,17.58
2022-09-11T07:36:12.966Z,18.77
2022-09-11T07:41:22.589Z,19.08
2022-09-11T07:46:31.135Z,14.93
2022-09-11T07:51:40.441Z,22.52
2022-09-11T07:56:44.286Z,21.35
2022-09-11T08:01:50.269Z,21.48
2022-09-11T08:06:55.439Z,21.40
2022-09-11T08:12:04.807Z,17.50
2022-09-11T08:17:11.684Z,22.50
2022-09-11T08:22:18.203Z,22.27
2022-09-11T08:27:24.360Z,21.02
2022-09-11T08:32:29.446Z,22.25
2022-09-11T08:37:35.963Z,24.77
2022-09-11T08:42:42.870Z,24.42
2022-09-11T08:47:50.413Z,23.80
2022-09-11T08:52:56.681Z,23.48
2022-09-11T08:58:12.313Z,22.88
2022-09-11T09:03:35.913Z,23.58
2022-09-11T09:08:54.320Z,25.98
2022-09-11T09:14:18.923Z,30.33
2022-09-11T09:19:28.250Z,27.27
2022-09-11T09:24:41.329Z,26.70
2022-09-11T09:29:47.953Z,25.02
2022-09-11T09:34:56.499Z,28.27
2022-09-11T09:40:11.247Z,29.33
2022-09-11T09:45:38.488Z,24.73
2022-09-11T09:50:44.823Z,25.20
2022-09-11T09:55:52.056Z,23.55
2022-09-11T10:00:55.723Z,24.38
2022-09-11T10:06:00.339Z,23.05
2022-09-11T10:11:07.119Z,19.10
2022-09-11T10:16:21.500Z,18.25
2022-09-11T10:21:29.483Z,19.55
2022-09-11T10:26:39.149Z,14.52
2022-09-11T10:31:50.961Z,17.33
2022-09-11T10:36:56.276Z,14.82
2022-09-11T10:42:10.642Z,14.55
2022-09-11T10:47:18.416Z,13.38
2022-09-11T10:52:23.290Z,11.70
2022-09-11T10:57:35.709Z,10.25
2022-09-11T11:02:42.427Z,10.07
2022-09-11T11:08:00.351Z,11.40
2022-09-11T11:13:16.818Z,10.05
2022-09-11T11:18:32.969Z,9.77
2022-09-11T11:23:51.180Z,12.00
2022-09-11T11:29:23.699Z,9.15
2022-09-11T11:34:40.148Z,9.80
2022-09-11T11:39:51.193Z,9.82
2022-09-11T11:50:12.458Z,8.85
2022-09-11T11:55:20.801Z,10.40
2022-09-11T12:00:27.473Z,7.10
2022-09-11T12:05:33.953Z,5.82
2022-09-11T12:10:39.693Z,6.22
2022-09-11T12:16:02.683Z,5.70
2022-09-11T12:21:35.209Z,7.25
2022-09-11T12:26:38.728Z,7.20
2022-09-11T12:32:15.472Z,6.20
2022-09-11T12:37:28.536Z,5.70
2022-09-11T12:42:55.949Z,10.63
2022-09-11T12:48:07.250Z,7.43
2022-09-11T12:53:19.432Z,10.40
2022-09-11T12:58:31.126Z,6.10
2022-09-11T13:03:35.555Z,7.03
2022-09-11T13:08:48.660Z,5.78
2022-09-11T13:13:52.380Z,5.20
2022-09-11T13:19:00.539Z,7.90
2022-09-11T13:24:22.286Z,6.85
2022-09-11T13:29:29.246Z,4.80
2022-09-11T13:34:36.483Z,4.95
2022-09-11T13:39:44.254Z,4.85
2022-09-11T13:44:50.240Z,4.72
2022-09-11T13:49:56.899Z,5.60
2022-09-11T13:55:04.780Z,5.35
2022-09-11T14:00:38.273Z,5.55
2022-09-11T14:05:50.366Z,4.55
2022-09-11T14:10:57.602Z,3.78
2022-09-11T14:16:04.439Z,4.20
2022-09-11T14:21:15.136Z,4.05
2022-09-11T14:26:22.204Z,3.72
2022-09-11T14:31:36.149Z,3.30
2022-09-11T14:36:42.209Z,4.25
2022-09-11T14:41:47.338Z,4.00
2022-09-11T14:46:50.978Z,3.42
2022-09-11T14:51:58.289Z,3.83
2022-09-11T14:57:03.225Z,3.97
2022-09-11T15:02:12.211Z,4.47
2022-09-11T15:07:17.380Z,5.90
2022-09-11T15:12:23.302Z,4.82
2022-09-11T15:17:30.533Z,4.55
2022-09-11T15:22:34.946Z,3.63
2022-09-11T15:27:39.808Z,6.20
2022-09-11T15:32:43.352Z,4.97
2022-09-11T15:37:47.706Z,5.45
2022-09-11T15:42:52.618Z,6.85
2022-09-11T15:47:56.126Z,4.78
2022-09-11T15:52:59.601Z,4.50
2022-09-11T15:58:04.895Z,3.67
2022-09-11T16:03:08.373Z,3.50
2022-09-11T16:08:13.066Z,3.47
2022-09-11T16:13:18.708Z,3.67
2022-09-11T16:18:22.292Z,3.72
2022-09-11T16:23:26.388Z,3.95
2022-09-11T16:28:31.811Z,5.32
2022-09-11T16:33:40.488Z,4.10
2022-09-11T16:38:44.579Z,3.47
2022-09-11T16:43:52.304Z,3.92
2022-09-11T16:49:01.491Z,3.95
2022-09-11T16:54:05.724Z,3.78
2022-09-11T16:59:11.199Z,3.45
2022-09-11T17:04:14.862Z,3.50
2022-09-11T17:09:18.432Z,3.72
2022-09-11T17:14:23.409Z,4.15
2022-09-11T17:19:27.128Z,3.65
2022-09-11T17:24:31.921Z,4.28
2022-09-11T17:29:39.217Z,3.47
2022-09-11T17:34:44.818Z,3.97
2022-09-11T17:39:48.492Z,3.70
2022-09-11T17:44:53.477Z,4.97
2022-09-11T17:49:57.472Z,3.72
2022-09-11T17:55:01.083Z,3.72
2022-09-11T18:00:07.338Z,4.95
2022-09-11T18:05:18.365Z,7.43
2022-09-11T18:10:25.016Z,5.18
2022-09-11T18:15:29.819Z,5.60
2022-09-11T18:20:36.230Z,6.50
2022-09-11T18:25:42.278Z,5.47
2022-09-11T18:30:47.563Z,6.22
2022-09-11T18:35:51.077Z,7.10
2022-09-11T18:41:00.117Z,7.85
2022-09-11T18:46:05.305Z,6.90
2022-09-11T18:51:10.117Z,8.27
2022-09-11T18:56:13.683Z,8.98
2022-09-11T19:01:20.148Z,8.65
2022-09-11T19:06:26.188Z,8.63
2022-09-11T19:11:32.263Z,8.07
2022-09-11T19:16:38.069Z,9.93
2022-09-11T19:21:41.880Z,8.50
2022-09-11T19:26:45.692Z,8.25
2022-09-11T19:31:52.760Z,9.70
2022-09-11T19:36:56.371Z,7.93
2022-09-11T19:42:00.402Z,9.60
2022-09-11T19:47:06.576Z,7.80
2022-09-11T19:52:11.779Z,9.45
2022-09-11T19:57:15.351Z,8.68
2022-09-11T20:02:20.282Z,11.73
2022-09-11T20:07:23.984Z,9.27
2022-09-11T20:12:31.318Z,10.25
2022-09-11T20:17:36.180Z,10.80
2022-09-11T20:22:39.833Z,12.95
2022-09-11T20:27:43.356Z,12.85
2022-09-11T20:32:48.251Z,12.95
2022-09-11T20:37:52.445Z,11.55
2022-09-11T20:42:56.076Z,14.02
2022-09-11T20:48:01.000Z,14.48
2022-09-11T20:53:04.570Z,15.10
2022-09-11T20:58:07.956Z,15.48
2022-09-11T21:03:13.206Z,13.43
2022-09-11T21:08:16.674Z,13.23
2022-09-11T21:13:20.096Z,13.80
2022-09-11T21:18:25.037Z,12.65
2022-09-11T21:23:28.878Z,13.13
2022-09-11T21:28:32.323Z,12.65
2022-09-11T21:33:37.767Z,12.80
2022-09-11T21:38:41.210Z,13.73
2022-09-11T21:43:44.978Z,14.18
2022-09-11T21:48:49.854Z,11.65
2022-09-11T21:53:58.197Z,11.30
2022-09-11T21:59:01.989Z,12.25
2022-09-11T22:04:06.921Z,12.60
2022-09-11T22:09:10.327Z,13.02
2022-09-11T22:14:18.915Z,13.93
2022-09-11T22:19:23.856Z,13.65
2022-09-11T22:24:27.312Z,12.77
2022-09-11T22:29:30.680Z,12.48
2022-09-11T22:34:37.108Z,13.15
2022-09-11T22:39:40.549Z,15.30
2022-09-11T22:44:44.102Z,18.35
2022-09-11T22:49:48.916Z,12.68
2022-09-11T22:54:52.367Z,14.57
2022-09-11T22:59:56.042Z,15.85
2022-09-11T23:05:14.741Z,15.23
2022-09-11T23:10:23.464Z,16.33
2022-09-11T23:15:27.041Z,16.52
2022-09-11T23:20:32.305Z,18.25
2022-09-11T23:25:36.184Z,16.00
2022-09-11T23:30:40.131Z,11.98
2022-09-11T23:35:44.998Z,15.52
2022-09-11T23:40:48.570Z,17.67
2022-09-11T23:45:52.057Z,11.50
2022-09-11T23:50:57.027Z,17.33
2022-09-11T23:56:00.443Z,16.83
